Pittsburg, KS (66762)

10:52 AM CDT on April 18, 2015 (GMT -0500)
KKSFRONT3 | | Change Station
CLOSE
Current Station
Personal Weather Station
Location: Frontenac, KS
Elevation: 942 ft
Nearby Weather Stations

Elev 942 ft 37.45 °N, 94.70 °W | Updated 0 second ago

Thunderstorm
Thunderstorm
59.2 °F
Feels Like 59.2 °F
N
0.0
Wind Variable Wind from ENE
Gusts 0.0 mph

Today
High -- | Low -- °F
--% Chance of Precip.
Yesterday
High -- | Low -- °F
Precip. -- in
6:40 AM 7:56 PM
Waning Crescent, 0% visible
Pressure 29.99 in
Visibility 7.0 miles
Clouds Scattered Clouds 3100 ft
Scattered Clouds 5000 ft
Overcast 8500 ft
Dew Point 59 °F
Humidity 98%
Rainfall 0.66 in
Snow Depth Not available.
UV 2 out of 12
Pollen 3.30 out of 12
Air Quality Not available.
Flu Activity Sporadic
METAR KPTS 181535Z AUTO 14006KT 7SM TSRA SCT031 SCT050 OVC085 16/16 A2999 RMK AO2 LTG DSNT NE AND E P0005 T01610162

More Conditions Fewer Conditions

Pressure 29.99 in
Visibility 7.0 miles
Clouds Scattered Clouds 3100 ft
Scattered Clouds 5000 ft
Overcast 8500 ft
Dew Point 59 °F
Humidity 98%
Rainfall 0.66 in
Snow Depth Not available.
UV 2 out of 12
Pollen 3.30 out of 12
Air Quality Not available.
Flu Activity Sporadic
METAR KPTS 181535Z AUTO 14006KT 7SM TSRA SCT031 SCT050 OVC085 16/16 A2999 RMK AO2 LTG DSNT NE AND E P0005 T01610162

More Conditions Fewer Conditions

10-Day Weather Forecast

Almanac

Astronomy

Apr. 18, 2015 Rise Set
Actual Time
Civil Twilight
Nautical Twilight
Astronomical Twilight
Moon
Length of Visible Light
Length of Day
Tomorrow will be .
, % of the Moon is Illuminated

Today's Extremes

State Highs State Lows

Community

WunderPhotos

Upload Photos

1,814,439 photos uploaded!

WunderBlogs® & News

Nearby

Air Quality

  Air Quality AQ Index Pollutant
Not available.

Snow Depth

Station Depth Elevation

Earthquake Activity

City Distance Mag. Time & Date
Minimum magnitude displayed is 2.5.

Coastal Water Temperatures

Place Temperature

Stations

Nearby Weather Stations

Station Location Temp. Windchill Dew Point Humidity Wind Precip. Elev Updated Type